Time,TemperatureF,DewpointF,PressureIn,WindDirection,WindDirectionDegrees,WindSpeedMPH,WindSpeedGustMPH,Humidity,HourlyPrecipIn,Conditions,Clouds,dailyrainin,SoftwareType,DateUTC
2013-01-21 00:09:00,26.2,22.0,30.21,WNW,292,6.8,-999.0,84,-99.99,,,0.00,Acu-Link.com,2013-01-21 06:09:00,
2013-01-21 00:24:00,26.1,21.1,30.21,NW,315,2.2,-999.0,81,-99.99,,,0.00,Acu-Link.com,2013-01-21 06:24:00,
2013-01-21 00:39:00,26.1,21.4,30.21,NW,315,3.7,-999.0,82,-99.99,,,0.00,Acu-Link.com,2013-01-21 06:39:00,
2013-01-21 00:54:00,25.9,21.2,30.20,NW,315,3.7,-999.0,82,-99.99,,,0.00,Acu-Link.com,2013-01-21 06:54:00,
2013-01-21 01:09:00,25.7,21.3,30.21,NNW,337,4.7,-999.0,83,-99.99,,,0.00,Acu-Link.com,2013-01-21 07:09:00,
2013-01-21 01:24:00,25.9,20.9,30.22,NW,315,5.8,-999.0,81,-99.99,,,0.00,Acu-Link.com,2013-01-21 07:24:00,
2013-01-21 01:40:00,25.9,22.3,30.22,WNW,292,5.8,-999.0,86,-99.99,,,0.00,Acu-Link.com,2013-01-21 07:40:00,
2013-01-21 01:55:00,25.9,23.6,30.22,WNW,292,4.2,-999.0,91,-99.99,,,0.00,Acu-Link.com,2013-01-21 07:55:00,
2013-01-21 02:10:00,25.7,24.2,30.22,NW,315,2.7,-999.0,94,-99.99,,,0.00,Acu-Link.com,2013-01-21 08:10:00,
2013-01-21 02:25:00,25.7,24.0,30.23,WNW,292,2.7,-999.0,93,-99.99,,,0.00,Acu-Link.com,2013-01-21 08:25:00,
2013-01-21 02:40:00,25.7,23.7,30.23,WNW,292,4.7,-999.0,92,-99.99,,,0.00,Acu-Link.com,2013-01-21 08:40:00,
2013-01-21 02:55:00,25.5,24.8,30.24,WNW,292,3.7,-999.0,97,-99.99,,,0.00,Acu-Link.com,2013-01-21 08:55:00,
2013-01-21 03:31:00,25.5,23.2,30.23,NW,315,5.8,-999.0,91,-99.99,,,0.00,Acu-Link.com,2013-01-21 09:31:00,
2013-01-21 04:02:00,25.5,21.4,30.23,NW,315,6.8,-999.0,84,-99.99,,,0.00,Acu-Link.com,2013-01-21 10:02:00,
2013-01-21 04:17:00,25.0,21.1,30.24,NNW,337,6.3,-999.0,85,-99.99,,,0.00,Acu-Link.com,2013-01-21 10:17:00,
2013-01-21 04:32:00,24.6,20.2,30.24,North,0,6.3,-999.0,83,-99.99,,,0.00,Acu-Link.com,2013-01-21 10:32:00,
2013-01-21 04:47:00,24.1,18.3,30.25,NW,315,7.8,-999.0,78,-99.99,,,0.00,Acu-Link.com,2013-01-21 10:47:00,
2013-01-21 05:02:00,23.5,18.8,30.25,NW,315,5.3,-999.0,82,-99.99,,,0.00,Acu-Link.com,2013-01-21 11:02:00,
2013-01-21 05:17:00,23.2,18.8,30.26,NNW,337,5.3,-999.0,83,-99.99,,,0.00,Acu-Link.com,2013-01-21 11:17:00,
2013-01-21 05:32:00,22.8,19.3,30.26,NW,315,3.7,-999.0,86,-99.99,,,0.00,Acu-Link.com,2013-01-21 11:32:00,
2013-01-21 05:47:00,22.8,19.0,30.27,NW,315,5.3,-999.0,85,-99.99,,,0.00,Acu-Link.com,2013-01-21 11:47:00,
2013-01-21 06:03:00,22.5,19.8,30.27,WNW,292,6.3,-999.0,89,-99.99,,,0.00,Acu-Link.com,2013-01-21 12:03:00,
2013-01-21 06:18:00,22.1,20.9,30.28,NW,315,5.8,-999.0,95,-99.99,,,0.00,Acu-Link.com,2013-01-21 12:18:00,
2013-01-21 06:33:00,22.1,19.4,30.29,NW,315,12.5,-999.0,89,-99.99,,,0.00,Acu-Link.com,2013-01-21 12:33:00,
2013-01-21 06:48:00,21.9,19.2,30.29,NW,315,6.8,-999.0,89,-99.99,,,0.00,Acu-Link.com,2013-01-21 12:48:00,
2013-01-21 07:03:00,21.7,19.5,30.29,NNW,337,5.8,-999.0,91,-99.99,,,0.00,Acu-Link.com,2013-01-21 13:03:00,
2013-01-21 07:18:00,21.2,19.5,30.29,NW,315,4.7,-999.0,93,-99.99,,,0.00,Acu-Link.com,2013-01-21 13:18:00,
2013-01-21 07:33:00,21.4,19.7,30.28,NW,315,7.3,-999.0,93,-99.99,,,0.00,Acu-Link.com,2013-01-21 13:33:00,
2013-01-21 07:48:00,21.9,19.9,30.28,WNW,292,2.2,-999.0,92,-99.99,,,0.00,Acu-Link.com,2013-01-21 13:48:00,
2013-01-21 08:04:00,22.5,19.2,30.28,NW,315,5.8,-999.0,87,-99.99,,,0.00,Acu-Link.com,2013-01-21 14:04:00,
2013-01-21 08:19:00,23.2,16.8,30.29,North,0,5.3,-999.0,76,-99.99,,,0.00,Acu-Link.com,2013-01-21 14:19:00,
2013-01-21 08:34:00,23.4,13.7,30.29,NNE,22,10.4,-999.0,66,-99.99,,,0.00,Acu-Link.com,2013-01-21 14:34:00,
2013-01-21 08:49:00,23.9,13.2,30.29,SW,225,6.3,-999.0,63,-99.99,,,0.00,Acu-Link.com,2013-01-21 14:49:00,
2013-01-21 09:04:00,24.8,14.7,30.30,NW,315,6.8,-999.0,65,-99.99,,,0.00,Acu-Link.com,2013-01-21 15:04:00,
2013-01-21 09:19:00,25.0,14.9,30.30,WNW,292,9.9,-999.0,65,-99.99,,,0.00,Acu-Link.com,2013-01-21 15:19:00,
2013-01-21 09:34:00,25.7,14.9,30.31,NW,315,10.4,-999.0,63,-99.99,,,0.00,Acu-Link.com,2013-01-21 15:34:00,
2013-01-21 09:49:00,26.2,15.7,30.31,WSW,247,6.8,-999.0,64,-99.99,,,0.00,Acu-Link.com,2013-01-21 15:49:00,
2013-01-21 10:04:00,26.6,14.6,30.30,NW,315,10.4,-999.0,60,-99.99,,,0.00,Acu-Link.com,2013-01-21 16:04:00,
2013-01-21 10:20:00,26.8,14.8,30.29,West,270,7.8,-999.0,60,-99.99,,,0.00,Acu-Link.com,2013-01-21 16:20:00,
2013-01-21 10:35:00,27.1,14.7,30.29,NW,315,6.8,-999.0,59,-99.99,,,0.00,Acu-Link.com,2013-01-21 16:35:00,
2013-01-21 10:50:00,28.0,13.5,30.29,West,270,15.5,-999.0,54,-99.99,,,0.00,Acu-Link.com,2013-01-21 16:50:00,
2013-01-21 11:05:00,28.0,13.5,30.29,WNW,292,6.8,-999.0,54,-99.99,,,0.00,Acu-Link.com,2013-01-21 17:05:00,
2013-01-21 11:20:00,28.0,13.5,30.28,WSW,247,8.9,-999.0,54,-99.99,,,0.00,Acu-Link.com,2013-01-21 17:20:00,
2013-01-21 11:35:00,28.8,14.3,30.27,NW,315,6.8,-999.0,54,-99.99,,,0.00,Acu-Link.com,2013-01-21 17:35:00,
2013-01-21 11:50:00,28.4,14.3,30.26,NNW,337,5.8,-999.0,55,-99.99,,,0.00,Acu-Link.com,2013-01-21 17:50:00,
2013-01-21 12:05:00,29.1,13.3,30.25,West,270,7.3,-999.0,51,-99.99,,,0.00,Acu-Link.com,2013-01-21 18:05:00,
2013-01-21 12:36:00,29.5,14.5,30.24,West,270,3.7,-999.0,53,-99.99,,,0.00,Acu-Link.com,2013-01-21 18:36:00,
2013-01-21 12:51:00,29.3,12.1,30.24,NW,315,6.8,-999.0,48,-99.99,,,0.00,Acu-Link.com,2013-01-21 18:51:00,
2013-01-21 13:06:00,30.0,12.2,30.24,NW,315,11.9,-999.0,47,-99.99,,,0.00,Acu-Link.com,2013-01-21 19:06:00,
2013-01-21 13:21:00,30.0,11.8,30.23,NNW,337,14.0,-999.0,46,-99.99,,,0.00,Acu-Link.com,2013-01-21 19:21:00,
2013-01-21 13:36:00,30.4,12.1,30.24,NW,315,7.3,-999.0,46,-99.99,,,0.00,Acu-Link.com,2013-01-21 19:36:00,
2013-01-21 13:51:00,30.6,12.3,30.25,NW,315,10.4,-999.0,46,-99.99,,,0.00,Acu-Link.com,2013-01-21 19:51:00,
2013-01-21 14:06:00,30.6,11.8,30.24,NW,315,16.6,-999.0,45,-99.99,,,0.00,Acu-Link.com,2013-01-21 20:06:00,
2013-01-21 14:21:00,30.4,11.6,30.25,NNW,337,9.9,-999.0,45,-99.99,,,0.00,Acu-Link.com,2013-01-21 20:21:00,
2013-01-21 14:36:00,30.4,11.1,30.25,NW,315,7.3,-999.0,44,-99.99,,,0.00,Acu-Link.com,2013-01-21 20:36:00,
2013-01-21 14:52:00,29.7,11.5,30.25,NW,315,13.5,-999.0,46,-99.99,,,0.00,Acu-Link.com,2013-01-21 20:52:00,
2013-01-21 15:07:00,29.3,11.1,30.24,West,270,7.3,-999.0,46,-99.99,,,0.00,Acu-Link.com,2013-01-21 21:07:00,
2013-01-21 15:22:00,29.1,10.4,30.25,NW,315,5.8,-999.0,45,-99.99,,,0.00,Acu-Link.com,2013-01-21 21:22:00,
2013-01-21 15:37:00,28.6,10.0,30.26,NNW,337,4.7,-999.0,45,-99.99,,,0.00,Acu-Link.com,2013-01-21 21:37:00,
2013-01-21 15:52:00,28.2,9.6,30.27,NNE,22,9.9,-999.0,45,-99.99,,,0.00,Acu-Link.com,2013-01-21 21:52:00,
2013-01-21 16:07:00,28.4,9.8,30.27,NW,315,11.9,-999.0,45,-99.99,,,0.00,Acu-Link.com,2013-01-21 22:07:00,
2013-01-21 16:22:00,27.9,9.3,30.27,NW,315,6.8,-999.0,45,-99.99,,,0.00,Acu-Link.com,2013-01-21 22:22:00,
2013-01-21 16:37:00,27.3,8.8,30.27,NE,45,5.8,-999.0,45,-99.99,,,0.00,Acu-Link.com,2013-01-21 22:37:00,
2013-01-21 16:52:00,26.6,9.1,30.27,NNW,337,9.4,-999.0,47,-99.99,,,0.00,Acu-Link.com,2013-01-21 22:52:00,
2013-01-21 17:08:00,26.1,9.1,30.27,NW,315,5.3,-999.0,48,-99.99,,,0.00,Acu-Link.com,2013-01-21 23:08:00,
2013-01-21 17:23:00,25.5,8.6,30.27,North,0,4.7,-999.0,48,-99.99,,,0.00,Acu-Link.com,2013-01-21 23:23:00,
2013-01-21 17:38:00,25.0,7.2,30.27,WNW,292,5.3,-999.0,46,-99.99,,,0.00,Acu-Link.com,2013-01-21 23:38:00,
2013-01-21 17:53:00,24.6,6.8,30.28,NW,315,8.3,-999.0,46,-99.99,,,0.00,Acu-Link.com,2013-01-21 23:53:00,
2013-01-21 18:08:00,23.5,7.2,30.28,NNE,22,4.2,-999.0,49,-99.99,,,0.00,Acu-Link.com,2013-01-22 00:08:00,
2013-01-21 18:23:00,22.8,7.0,30.29,North,0,3.7,-999.0,50,-99.99,,,0.00,Acu-Link.com,2013-01-22 00:23:00,
2013-01-21 18:38:00,22.8,7.0,30.29,NW,315,6.8,-999.0,50,-99.99,,,0.00,Acu-Link.com,2013-01-22 00:38:00,
2013-01-21 18:53:00,22.6,6.8,30.29,NW,315,4.7,-999.0,50,-99.99,,,0.00,Acu-Link.com,2013-01-22 00:53:00,
2013-01-21 19:08:00,22.5,6.7,30.29,NNW,337,4.7,-999.0,50,-99.99,,,0.00,Acu-Link.com,2013-01-22 01:08:00,
2013-01-21 19:24:00,22.3,6.1,30.29,NNW,337,6.8,-999.0,49,-99.99,,,0.00,Acu-Link.com,2013-01-22 01:24:00,
2013-01-21 19:39:00,21.9,6.1,30.30,WNW,292,4.2,-999.0,50,-99.99,,,0.00,Acu-Link.com,2013-01-22 01:39:00,
2013-01-21 19:54:00,21.0,5.3,30.30,NNW,337,5.8,-999.0,50,-99.99,,,0.00,Acu-Link.com,2013-01-22 01:54:00,
2013-01-21 20:09:00,21.0,5.7,30.31,WNW,292,7.3,-999.0,51,-99.99,,,0.00,Acu-Link.com,2013-01-22 02:09:00,
2013-01-21 20:24:00,21.2,6.4,30.30,NNW,337,4.7,-999.0,52,-99.99,,,0.00,Acu-Link.com,2013-01-22 02:24:00,
2013-01-21 20:39:00,20.8,5.6,30.31,NW,315,4.7,-999.0,51,-99.99,,,0.00,Acu-Link.com,2013-01-22 02:39:00,
2013-01-21 20:54:00,20.7,5.9,30.32,NNW,337,5.8,-999.0,52,-99.99,,,0.00,Acu-Link.com,2013-01-22 02:54:00,
2013-01-21 21:09:00,20.5,5.7,30.32,NW,315,6.8,-999.0,52,-99.99,,,0.00,Acu-Link.com,2013-01-22 03:09:00,
2013-01-21 21:24:00,20.1,4.5,30.32,NNW,337,6.3,-999.0,50,-99.99,,,0.00,Acu-Link.com,2013-01-22 03:24:00,
2013-01-21 21:40:00,19.9,4.7,30.33,NW,315,6.3,-999.0,51,-99.99,,,0.00,Acu-Link.com,2013-01-22 03:40:00,
2013-01-21 21:55:00,19.9,5.1,30.33,NNE,22,4.2,-999.0,52,-99.99,,,0.00,Acu-Link.com,2013-01-22 03:55:00,
2013-01-21 22:10:00,19.9,5.6,30.33,NNW,337,5.8,-999.0,53,-99.99,,,0.00,Acu-Link.com,2013-01-22 04:10:00,
2013-01-21 22:25:00,19.8,5.5,30.33,NNW,337,4.2,-999.0,53,-99.99,,,0.00,Acu-Link.com,2013-01-22 04:25:00,
2013-01-21 22:40:00,19.4,4.7,30.33,NW,315,7.8,-999.0,52,-99.99,,,0.00,Acu-Link.com,2013-01-22 04:40:00,
2013-01-21 22:55:00,19.6,4.4,30.34,NNW,337,6.3,-999.0,51,-99.99,,,0.00,Acu-Link.com,2013-01-22 04:55:00,
2013-01-21 23:10:00,19.2,4.1,30.34,NNW,337,6.3,-999.0,51,-99.99,,,0.00,Acu-Link.com,2013-01-22 05:10:00,
2013-01-21 23:25:00,19.0,4.3,30.34,NNW,337,6.3,-999.0,52,-99.99,,,0.00,Acu-Link.com,2013-01-22 05:25:00,
2013-01-21 23:40:00,18.3,3.2,30.34,NNW,337,4.7,-999.0,51,-99.99,,,0.00,Acu-Link.com,2013-01-22 05:40:00,
2013-01-21 23:56:00,18.0,3.0,30.34,NNW,337,4.7,-999.0,51,-99.99,,,0.00,Acu-Link.com,2013-01-22 05:56:00,